Terminal Aerodrome Forecast
Issued by NWS Bismarck, ND

Home | Current Version | Previous Version | Graphics & Text | Print | Product List | Glossary On
Versions: 1 2 3 4 5 6 7 8 9 10 11 12 13 14 15 16 17
382
FTUS43 KBIS 180924 AAA
TAFBIS
TAF AMD
KBIS 180924Z 1809/1906 VRB06KT P6SM OVC005
      TEMPO 1809/1810 5SM -SHRA BKN008 OVC020
     FM181000 04010KT 5SM -SHRA OVC011
     FM181300 02011KT 4SM BR VCSH OVC008
     FM181900 36016G24KT P6SM OVC011
     FM190100 01015G21KT P6SM OVC015=

USA.gov is the U.S. government's official web portal to all federal, state and local government web resources and services.